BWA550 TTPP-KJFK
Flight info
| Callsign | BWA550 |
|---|---|
| Flight time | N/A |
| Altitude | 34000 |
| Route | PERRY UG449 ANADA DCT THANK L456 HANCY/M079F340 L456 DARUX L459 SAVIK/N0461F340 Y486 OWENZ Y495 CAMRN |
| Aircraft | B38M/M-MSDE3FGHIRWYLB1/HB1 |
Departure
| Time | 2026-05-07 23:08 |
|---|---|
| Airport | Piarco International Airport (TTPP) |
Arrival
| Time | N/A |
|---|---|
| Airport | John F. Kennedy International Airport (KJFK) |
| Time | Latitude | Longitude | Altitude | Speed | Heading |
|---|---|---|---|---|---|
| 2026-05-07 21:53 | 10.59948 | -61.33818 | 201 ft | 0 kts | 309° |
| 2026-05-07 22:55 | 10.59936 | -61.33801 | 211 ft | 3 kts | 307° |
| 2026-05-07 22:55 | 10.59922 | -61.33780 | 210 ft | 3 kts | 298° |
| 2026-05-07 22:56 | 10.59913 | -61.33758 | 201 ft | 3 kts | 278° |
| 2026-05-07 22:56 | 10.59915 | -61.33739 | 201 ft | 3 kts | 221° |
| 2026-05-07 22:56 | 10.59924 | -61.33736 | 201 ft | 1 kts | 179° |
| 2026-05-07 22:56 | 10.59926 | -61.33736 | 201 ft | 0 kts | 179° |
| 2026-05-07 23:02 | 10.59925 | -61.33736 | 201 ft | 1 kts | 179° |
| 2026-05-07 23:02 | 10.59907 | -61.33735 | 201 ft | 6 kts | 179° |
| 2026-05-07 23:02 | 10.59827 | -61.33735 | 207 ft | 17 kts | 179° |
| 2026-05-07 23:03 | 10.59710 | -61.33778 | 206 ft | 21 kts | 259° |
| 2026-05-07 23:03 | 10.59707 | -61.33928 | 204 ft | 22 kts | 268° |
| 2026-05-07 23:03 | 10.59708 | -61.34083 | 207 ft | 22 kts | 270° |
| 2026-05-07 23:03 | 10.59708 | -61.34241 | 208 ft | 23 kts | 269° |
| 2026-05-07 23:04 | 10.59707 | -61.34418 | 207 ft | 26 kts | 270° |
| 2026-05-07 23:04 | 10.59603 | -61.34527 | 195 ft | 27 kts | 178° |
| 2026-05-07 23:04 | 10.59427 | -61.34546 | 206 ft | 23 kts | 229° |
| 2026-05-07 23:04 | 10.59401 | -61.34697 | 211 ft | 22 kts | 254° |
| 2026-05-07 23:05 | 10.59359 | -61.34845 | 208 ft | 22 kts | 254° |
| 2026-05-07 23:05 | 10.59352 | -61.35001 | 200 ft | 22 kts | 269° |
| 2026-05-07 23:05 | 10.59357 | -61.35159 | 205 ft | 21 kts | 288° |
| 2026-05-07 23:05 | 10.59445 | -61.35193 | 208 ft | 9 kts | 1° |
| 2026-05-07 23:06 | 10.59505 | -61.35176 | 202 ft | 9 kts | 15° |
| 2026-05-07 23:06 | 10.59535 | -61.35119 | 194 ft | 0 kts | 90° |
| 2026-05-07 23:07 | 10.59534 | -61.35006 | 197 ft | 46 kts | 90° |
| 2026-05-07 23:07 | 10.59536 | -61.34449 | 200 ft | 110 kts | 90° |
| 2026-05-07 23:07 | 10.59538 | -61.33477 | 198 ft | 162 kts | 90° |
| 2026-05-07 23:08 | 10.59541 | -61.32236 | 538 ft | 177 kts | 90° |
| 2026-05-07 23:08 | 10.59544 | -61.30930 | 1042 ft | 192 kts | 90° |
| 2026-05-07 23:08 | 10.59550 | -61.29562 | 1775 ft | 191 kts | 89° |
| 2026-05-07 23:08 | 10.59572 | -61.28154 | 2087 ft | 212 kts | 89° |
| 2026-05-07 23:09 | 10.59594 | -61.26570 | 2293 ft | 234 kts | 89° |
| 2026-05-07 23:09 | 10.59604 | -61.24887 | 2808 ft | 241 kts | 90° |
| 2026-05-07 23:09 | 10.59607 | -61.23131 | 3158 ft | 256 kts | 89° |
| 2026-05-07 23:09 | 10.59605 | -61.21311 | 3676 ft | 263 kts | 89° |
| 2026-05-07 23:10 | 10.59605 | -61.19433 | 4340 ft | 266 kts | 89° |
| 2026-05-07 23:10 | 10.59714 | -61.17553 | 4976 ft | 268 kts | 75° |
| 2026-05-07 23:10 | 10.60555 | -61.15872 | 5622 ft | 270 kts | 48° |
| 2026-05-07 23:10 | 10.62070 | -61.14744 | 6203 ft | 274 kts | 22° |
| 2026-05-07 23:11 | 10.63946 | -61.14382 | 6776 ft | 279 kts | 358° |
| 2026-05-07 23:11 | 10.65813 | -61.14893 | 7335 ft | 283 kts | 329° |
| 2026-05-07 23:11 | 10.67289 | -61.16237 | 7855 ft | 289 kts | 313° |
| 2026-05-07 23:11 | 10.68619 | -61.17757 | 8393 ft | 292 kts | 312° |
| 2026-05-07 23:12 | 10.69972 | -61.19313 | 8927 ft | 295 kts | 313° |
| 2026-05-07 23:12 | 10.71337 | -61.20884 | 9452 ft | 298 kts | 312° |
| 2026-05-07 23:12 | 10.72712 | -61.22464 | 9989 ft | 300 kts | 312° |
| 2026-05-07 23:12 | 10.74124 | -61.24082 | 10284 ft | 313 kts | 312° |
| 2026-05-07 23:13 | 10.75614 | -61.25787 | 10409 ft | 330 kts | 312° |
| 2026-05-07 23:13 | 10.77164 | -61.27561 | 10627 ft | 341 kts | 312° |
| 2026-05-07 23:13 | 10.78764 | -61.29388 | 10951 ft | 349 kts | 312° |
| 2026-05-07 23:13 | 10.80385 | -61.31238 | 11442 ft | 351 kts | 312° |
| 2026-05-07 23:14 | 10.82019 | -61.33098 | 11934 ft | 354 kts | 312° |
| 2026-05-07 23:14 | 10.83665 | -61.34970 | 12463 ft | 356 kts | 312° |
| 2026-05-07 23:14 | 10.85329 | -61.36854 | 12996 ft | 359 kts | 312° |
| 2026-05-07 23:14 | 10.87009 | -61.38748 | 13540 ft | 362 kts | 312° |
| 2026-05-07 23:15 | 10.88703 | -61.40650 | 14087 ft | 364 kts | 312° |
| 2026-05-07 23:15 | 10.90395 | -61.42542 | 14601 ft | 369 kts | 313° |
| 2026-05-07 23:15 | 10.92177 | -61.44528 | 14834 ft | 380 kts | 312° |
| 2026-05-07 23:15 | 10.93959 | -61.46507 | 15146 ft | 388 kts | 312° |
| 2026-05-07 23:16 | 10.95821 | -61.48565 | 15625 ft | 391 kts | 312° |
| 2026-05-07 23:16 | 10.97650 | -61.50577 | 16079 ft | 394 kts | 312° |
| 2026-05-07 23:16 | 10.99526 | -61.52633 | 16546 ft | 396 kts | 312° |
| 2026-05-07 23:16 | 11.01412 | -61.54692 | 16985 ft | 399 kts | 313° |
| 2026-05-07 23:17 | 11.03314 | -61.56758 | 17418 ft | 401 kts | 312° |
| 2026-05-07 23:17 | 11.05233 | -61.58831 | 17830 ft | 403 kts | 313° |
| 2026-05-07 23:17 | 11.07163 | -61.60912 | 18225 ft | 406 kts | 313° |
| 2026-05-07 23:17 | 11.09112 | -61.63006 | 18625 ft | 408 kts | 313° |
| 2026-05-07 23:18 | 11.11070 | -61.65105 | 18998 ft | 410 kts | 313° |
| 2026-05-07 23:18 | 11.13043 | -61.67213 | 19362 ft | 412 kts | 313° |
| 2026-05-07 23:18 | 11.15029 | -61.69332 | 19716 ft | 414 kts | 313° |
| 2026-05-07 23:18 | 11.17001 | -61.71432 | 20051 ft | 416 kts | 313° |
| 2026-05-07 23:19 | 11.19010 | -61.73564 | 20368 ft | 418 kts | 314° |
| 2026-05-07 23:19 | 11.21299 | -61.75397 | 20705 ft | 422 kts | 329° |
| 2026-05-07 23:19 | 11.23856 | -61.76874 | 21011 ft | 424 kts | 328° |
| 2026-05-07 23:19 | 11.26398 | -61.78419 | 21306 ft | 426 kts | 327° |
| 2026-05-07 23:20 | 11.28936 | -61.79981 | 21613 ft | 428 kts | 327° |
| 2026-05-07 23:20 | 11.31485 | -61.81560 | 21890 ft | 430 kts | 327° |
| 2026-05-07 23:20 | 11.34041 | -61.83148 | 22188 ft | 431 kts | 327° |
| 2026-05-07 23:20 | 11.36607 | -61.84744 | 22461 ft | 433 kts | 327° |
| 2026-05-07 23:21 | 11.39185 | -61.86347 | 22737 ft | 435 kts | 327° |
| 2026-05-07 23:21 | 11.41779 | -61.87961 | 23016 ft | 437 kts | 327° |
| 2026-05-07 23:21 | 11.44379 | -61.89579 | 23288 ft | 439 kts | 327° |
| 2026-05-07 23:21 | 11.46985 | -61.91202 | 23557 ft | 440 kts | 327° |
| 2026-05-07 23:22 | 11.49607 | -61.92834 | 23813 ft | 442 kts | 327° |
| 2026-05-07 23:22 | 11.52236 | -61.94472 | 24061 ft | 444 kts | 327° |
| 2026-05-07 23:22 | 11.54876 | -61.96116 | 24311 ft | 446 kts | 327° |
| 2026-05-07 23:22 | 11.57529 | -61.97769 | 24565 ft | 447 kts | 327° |
| 2026-05-07 23:23 | 11.60189 | -61.99427 | 24816 ft | 449 kts | 327° |
| 2026-05-07 23:23 | 11.62861 | -62.01092 | 25059 ft | 451 kts | 327° |
| 2026-05-07 23:23 | 11.65543 | -62.02765 | 25307 ft | 452 kts | 327° |
| 2026-05-07 23:23 | 11.68229 | -62.04440 | 25552 ft | 454 kts | 326° |
| 2026-05-07 23:24 | 11.70897 | -62.06104 | 25785 ft | 456 kts | 326° |
| 2026-05-07 23:24 | 11.73604 | -62.07793 | 26014 ft | 457 kts | 326° |
| 2026-05-07 23:24 | 11.76324 | -62.09490 | 26254 ft | 459 kts | 326° |
| 2026-05-07 23:24 | 11.79049 | -62.11192 | 26483 ft | 460 kts | 326° |
| 2026-05-07 23:25 | 11.81793 | -62.12905 | 26708 ft | 462 kts | 326° |
| 2026-05-07 23:25 | 11.84542 | -62.14622 | 26930 ft | 464 kts | 326° |
| 2026-05-07 23:25 | 11.87297 | -62.16342 | 27153 ft | 465 kts | 326° |
| 2026-05-07 23:25 | 11.90064 | -62.18072 | 27373 ft | 467 kts | 326° |
| 2026-05-07 23:26 | 11.92841 | -62.19807 | 27593 ft | 468 kts | 326° |
| 2026-05-07 23:26 | 11.95625 | -62.21548 | 27824 ft | 470 kts | 326° |
| 2026-05-07 23:26 | 11.98420 | -62.23295 | 28039 ft | 471 kts | 326° |
| 2026-05-07 23:26 | 12.01225 | -62.25049 | 28241 ft | 473 kts | 326° |
| 2026-05-07 23:27 | 12.06809 | -62.28543 | 28662 ft | 476 kts | 326° |
| 2026-05-07 23:27 | 12.09638 | -62.30314 | 28853 ft | 477 kts | 326° |
| 2026-05-07 23:27 | 12.12481 | -62.32093 | 29045 ft | 479 kts | 326° |
| 2026-05-07 23:28 | 12.15325 | -62.33874 | 29286 ft | 479 kts | 326° |
| 2026-05-07 23:28 | 12.18169 | -62.35654 | 29578 ft | 478 kts | 326° |
| 2026-05-07 23:28 | 12.21004 | -62.37430 | 29861 ft | 477 kts | 326° |
| 2026-05-07 23:28 | 12.23831 | -62.39202 | 30153 ft | 476 kts | 326° |
| 2026-05-07 23:29 | 12.26658 | -62.40973 | 30447 ft | 476 kts | 326° |
| 2026-05-07 23:29 | 12.29478 | -62.42741 | 30725 ft | 475 kts | 326° |
| 2026-05-07 23:29 | 12.32299 | -62.44510 | 31003 ft | 475 kts | 326° |
| 2026-05-07 23:29 | 12.35118 | -62.46278 | 31279 ft | 475 kts | 326° |
| 2026-05-07 23:30 | 12.37934 | -62.48045 | 31558 ft | 474 kts | 326° |
| 2026-05-07 23:30 | 12.40738 | -62.49804 | 31831 ft | 473 kts | 326° |
| 2026-05-07 23:30 | 12.43549 | -62.51569 | 32104 ft | 473 kts | 326° |
| 2026-05-07 23:30 | 12.46352 | -62.53329 | 32373 ft | 472 kts | 326° |
| 2026-05-07 23:31 | 12.49117 | -62.55066 | 32646 ft | 472 kts | 326° |
| 2026-05-07 23:31 | 12.51913 | -62.56821 | 32920 ft | 471 kts | 326° |
| 2026-05-07 23:31 | 12.54705 | -62.58576 | 33203 ft | 471 kts | 326° |
| 2026-05-07 23:31 | 12.57494 | -62.60329 | 33466 ft | 470 kts | 326° |
| 2026-05-07 23:32 | 12.60277 | -62.62079 | 33711 ft | 469 kts | 326° |
| 2026-05-07 23:32 | 12.63060 | -62.63829 | 33968 ft | 469 kts | 326° |
| 2026-05-07 23:32 | 12.65842 | -62.65578 | 34224 ft | 468 kts | 326° |
| 2026-05-07 23:32 | 12.68616 | -62.67324 | 34454 ft | 467 kts | 326° |
| 2026-05-07 23:33 | 12.71385 | -62.69067 | 34691 ft | 467 kts | 326° |
| 2026-05-07 23:33 | 12.74154 | -62.70810 | 34919 ft | 467 kts | 326° |
| 2026-05-07 23:33 | 12.76918 | -62.72550 | 35152 ft | 466 kts | 326° |
| 2026-05-07 23:33 | 12.79676 | -62.74288 | 35371 ft | 465 kts | 326° |
| 2026-05-07 23:34 | 12.82432 | -62.76024 | 35552 ft | 465 kts | 326° |
| 2026-05-07 23:34 | 12.85195 | -62.77765 | 35747 ft | 465 kts | 326° |
| 2026-05-07 23:34 | 12.87946 | -62.79499 | 35934 ft | 464 kts | 326° |
| 2026-05-07 23:34 | 12.90700 | -62.81235 | 36004 ft | 465 kts | 326° |
| 2026-05-07 23:35 | 12.96200 | -62.84705 | 35994 ft | 463 kts | 326° |
| 2026-05-07 23:35 | 13.01694 | -62.88172 | 35990 ft | 463 kts | 326° |
| 2026-05-07 23:36 | 13.07178 | -62.91635 | 35987 ft | 463 kts | 326° |
| 2026-05-07 23:36 | 13.12624 | -62.95075 | 35986 ft | 463 kts | 326° |
| 2026-05-07 23:37 | 13.18113 | -62.98546 | 35994 ft | 463 kts | 326° |
| 2026-05-07 23:37 | 13.23606 | -63.02019 | 36000 ft | 463 kts | 326° |
| 2026-05-07 23:38 | 13.29089 | -63.05489 | 35998 ft | 463 kts | 326° |
| 2026-05-07 23:38 | 13.34572 | -63.08961 | 35998 ft | 463 kts | 326° |
| 2026-05-07 23:39 | 13.40065 | -63.12441 | 36003 ft | 463 kts | 326° |
| 2026-05-07 23:39 | 13.45517 | -63.15896 | 35998 ft | 463 kts | 326° |
| 2026-05-07 23:40 | 13.51000 | -63.19374 | 35999 ft | 463 kts | 326° |
| 2026-05-07 23:40 | 13.56482 | -63.22852 | 36006 ft | 463 kts | 326° |
| 2026-05-07 23:41 | 13.61958 | -63.26329 | 36008 ft | 463 kts | 326° |
| 2026-05-07 23:41 | 13.67439 | -63.29810 | 36007 ft | 462 kts | 326° |
| 2026-05-07 23:42 | 13.72880 | -63.33268 | 36008 ft | 462 kts | 326° |
| 2026-05-07 23:42 | 13.78356 | -63.36750 | 36007 ft | 463 kts | 326° |
| 2026-05-07 23:43 | 13.83830 | -63.40233 | 36007 ft | 462 kts | 326° |
| 2026-05-07 23:43 | 13.89299 | -63.43715 | 36008 ft | 462 kts | 326° |
| 2026-05-07 23:44 | 13.94775 | -63.47203 | 36009 ft | 462 kts | 326° |
| 2026-05-07 23:44 | 14.00245 | -63.50689 | 36012 ft | 462 kts | 326° |
| 2026-05-07 23:45 | 14.05714 | -63.54177 | 36006 ft | 462 kts | 326° |
| 2026-05-07 23:45 | 14.11145 | -63.57643 | 36018 ft | 462 kts | 326° |
| 2026-05-07 23:46 | 14.16607 | -63.61130 | 36020 ft | 462 kts | 326° |
| 2026-05-07 23:46 | 14.22067 | -63.64617 | 36025 ft | 461 kts | 326° |
| 2026-05-07 23:47 | 14.27524 | -63.68106 | 36028 ft | 462 kts | 326° |
| 2026-05-07 23:47 | 14.32982 | -63.71596 | 36036 ft | 462 kts | 326° |
| 2026-05-07 23:48 | 14.38442 | -63.75090 | 36035 ft | 462 kts | 326° |
| 2026-05-07 23:48 | 14.43905 | -63.78588 | 36038 ft | 461 kts | 326° |
| 2026-05-07 23:49 | 14.49364 | -63.82085 | 36037 ft | 462 kts | 326° |
| 2026-05-07 23:49 | 14.54821 | -63.85584 | 36037 ft | 462 kts | 326° |
| 2026-05-07 23:50 | 14.60277 | -63.89083 | 36034 ft | 461 kts | 326° |
| 2026-05-07 23:50 | 14.64810 | -63.91992 | 36035 ft | 461 kts | 326° |
| 2026-05-07 23:51 | 14.71142 | -63.96058 | 36041 ft | 461 kts | 326° |
| 2026-05-07 23:51 | 14.75711 | -63.98994 | 36045 ft | 461 kts | 326° |
| 2026-05-07 23:52 | 14.81160 | -64.02496 | 36049 ft | 461 kts | 327° |
| 2026-05-07 23:52 | 14.86566 | -64.05975 | 36045 ft | 460 kts | 327° |
| 2026-05-07 23:53 | 14.91996 | -64.09469 | 36040 ft | 460 kts | 327° |
| 2026-05-07 23:53 | 14.97430 | -64.12969 | 36050 ft | 459 kts | 327° |
| 2026-05-07 23:54 | 15.00241 | -64.14545 | 36017 ft | 460 kts | 339° |
| 2026-05-07 23:54 | 15.03303 | -64.15483 | 36072 ft | 459 kts | 342° |
| 2026-05-07 23:54 | 15.09473 | -64.17310 | 36057 ft | 462 kts | 343° |
| 2026-05-07 23:55 | 15.15667 | -64.19087 | 36051 ft | 461 kts | 343° |
| 2026-05-07 23:55 | 15.21817 | -64.20842 | 36055 ft | 461 kts | 343° |
| 2026-05-07 23:56 | 15.28000 | -64.22606 | 36053 ft | 461 kts | 343° |
| 2026-05-07 23:56 | 15.34190 | -64.24374 | 36049 ft | 461 kts | 343° |
| 2026-05-07 23:57 | 15.40371 | -64.26140 | 36062 ft | 461 kts | 343° |
| 2026-05-07 23:57 | 15.46560 | -64.27909 | 36064 ft | 461 kts | 343° |
| 2026-05-07 23:58 | 15.52741 | -64.29677 | 36062 ft | 461 kts | 343° |
| 2026-05-07 23:58 | 15.58923 | -64.31447 | 36061 ft | 460 kts | 343° |
| 2026-05-07 23:59 | 15.65065 | -64.33206 | 36070 ft | 460 kts | 343° |
| 2026-05-07 23:59 | 15.71236 | -64.34974 | 36073 ft | 460 kts | 343° |
| 2026-05-08 00:00 | 15.77416 | -64.36746 | 36072 ft | 460 kts | 343° |
| 2026-05-08 00:00 | 15.83591 | -64.38519 | 36073 ft | 460 kts | 343° |
| 2026-05-08 00:01 | 15.89768 | -64.40292 | 36074 ft | 460 kts | 343° |
| 2026-05-08 00:01 | 15.95959 | -64.42071 | 36073 ft | 460 kts | 343° |
| 2026-05-08 00:02 | 16.02091 | -64.43834 | 36075 ft | 460 kts | 343° |
| 2026-05-08 00:02 | 16.08259 | -64.45608 | 36069 ft | 459 kts | 343° |
| 2026-05-08 00:03 | 16.14414 | -64.47380 | 36079 ft | 459 kts | 343° |
| 2026-05-08 00:03 | 16.20581 | -64.49157 | 36084 ft | 459 kts | 343° |
| 2026-05-08 00:04 | 16.26736 | -64.50931 | 36081 ft | 459 kts | 343° |
| 2026-05-08 00:04 | 16.32887 | -64.52705 | 36084 ft | 458 kts | 343° |
| 2026-05-08 00:05 | 16.38998 | -64.54469 | 36082 ft | 458 kts | 344° |
| 2026-05-08 00:05 | 16.45151 | -64.56246 | 36081 ft | 458 kts | 344° |
| 2026-05-08 00:06 | 16.51297 | -64.58022 | 36082 ft | 457 kts | 344° |
| 2026-05-08 00:06 | 16.57427 | -64.59795 | 36091 ft | 457 kts | 344° |
| 2026-05-08 00:07 | 16.63519 | -64.61558 | 36092 ft | 456 kts | 344° |
| 2026-05-08 00:07 | 16.69645 | -64.63332 | 36091 ft | 456 kts | 344° |
| 2026-05-08 00:08 | 16.75763 | -64.65104 | 36092 ft | 456 kts | 344° |
| 2026-05-08 00:08 | 16.81869 | -64.66875 | 36099 ft | 455 kts | 344° |
| 2026-05-08 00:09 | 16.87979 | -64.68648 | 36100 ft | 455 kts | 344° |
| 2026-05-08 00:09 | 16.94037 | -64.70407 | 36100 ft | 455 kts | 344° |
| 2026-05-08 00:10 | 17.00130 | -64.72177 | 36101 ft | 454 kts | 345° |
| 2026-05-08 00:10 | 17.06225 | -64.73949 | 36095 ft | 454 kts | 345° |
| 2026-05-08 00:11 | 17.12307 | -64.75719 | 36102 ft | 454 kts | 345° |
| 2026-05-08 00:11 | 17.18379 | -64.77486 | 36106 ft | 452 kts | 345° |
| 2026-05-08 00:12 | 17.24439 | -64.79251 | 36110 ft | 451 kts | 345° |
| 2026-05-08 00:12 | 17.30489 | -64.81015 | 36110 ft | 451 kts | 345° |
| 2026-05-08 00:13 | 17.36542 | -64.82781 | 36111 ft | 451 kts | 345° |
| 2026-05-08 00:13 | 17.42546 | -64.84533 | 36109 ft | 451 kts | 345° |
| 2026-05-08 00:14 | 17.48583 | -64.86298 | 36112 ft | 450 kts | 345° |
| 2026-05-08 00:14 | 17.54624 | -64.88064 | 36119 ft | 450 kts | 345° |
| 2026-05-08 00:15 | 17.60663 | -64.89830 | 36122 ft | 450 kts | 345° |
| 2026-05-08 00:15 | 17.66690 | -64.91595 | 36116 ft | 449 kts | 345° |
| 2026-05-08 00:16 | 17.72710 | -64.93358 | 36119 ft | 449 kts | 345° |
| 2026-05-08 00:16 | 17.78735 | -64.95124 | 36114 ft | 449 kts | 345° |
| 2026-05-08 00:17 | 17.84717 | -64.96879 | 36110 ft | 448 kts | 345° |
| 2026-05-08 00:17 | 17.90743 | -64.98648 | 36107 ft | 449 kts | 346° |
| 2026-05-08 00:18 | 17.96761 | -65.00416 | 36099 ft | 449 kts | 346° |
| 2026-05-08 00:18 | 18.02741 | -65.02173 | 36094 ft | 448 kts | 346° |
| 2026-05-08 00:19 | 18.08718 | -65.03932 | 36080 ft | 445 kts | 346° |
| 2026-05-08 00:19 | 18.14677 | -65.05686 | 36073 ft | 445 kts | 346° |
| 2026-05-08 00:20 | 18.20646 | -65.07445 | 36073 ft | 445 kts | 346° |
| 2026-05-08 00:20 | 18.26611 | -65.09203 | 36067 ft | 445 kts | 346° |
| 2026-05-08 00:21 | 18.32565 | -65.10960 | 36062 ft | 444 kts | 346° |
| 2026-05-08 00:21 | 18.38518 | -65.12717 | 36061 ft | 444 kts | 346° |
| 2026-05-08 00:22 | 18.44436 | -65.14466 | 36067 ft | 444 kts | 346° |
| 2026-05-08 00:22 | 18.50385 | -65.16224 | 36067 ft | 444 kts | 346° |
| 2026-05-08 00:23 | 18.56334 | -65.17985 | 36061 ft | 443 kts | 346° |
| 2026-05-08 00:23 | 18.62274 | -65.19744 | 36061 ft | 443 kts | 346° |
| 2026-05-08 00:24 | 18.68217 | -65.21504 | 36066 ft | 443 kts | 346° |
| 2026-05-08 00:24 | 18.74155 | -65.23265 | 36069 ft | 443 kts | 346° |
| 2026-05-08 00:25 | 18.80091 | -65.25026 | 36061 ft | 443 kts | 346° |
| 2026-05-08 00:25 | 18.85986 | -65.26777 | 36065 ft | 442 kts | 346° |
| 2026-05-08 00:26 | 18.91917 | -65.28539 | 36069 ft | 442 kts | 346° |
| 2026-05-08 00:26 | 18.97839 | -65.30300 | 36062 ft | 442 kts | 346° |
| 2026-05-08 00:27 | 19.03751 | -65.32060 | 36064 ft | 442 kts | 346° |
| 2026-05-08 00:27 | 19.09667 | -65.33822 | 36069 ft | 442 kts | 346° |
| 2026-05-08 00:28 | 19.15576 | -65.35583 | 36061 ft | 441 kts | 346° |
| 2026-05-08 00:28 | 19.21485 | -65.37345 | 36063 ft | 441 kts | 346° |
| 2026-05-08 00:29 | 19.27390 | -65.39108 | 36057 ft | 441 kts | 346° |
| 2026-05-08 00:29 | 19.33289 | -65.40870 | 36071 ft | 440 kts | 346° |
| 2026-05-08 00:30 | 19.39185 | -65.42632 | 36069 ft | 440 kts | 346° |
| 2026-05-08 00:30 | 19.45077 | -65.44395 | 36072 ft | 440 kts | 346° |
| 2026-05-08 00:31 | 19.50961 | -65.46157 | 36073 ft | 439 kts | 346° |
| 2026-05-08 00:31 | 19.56848 | -65.47920 | 36074 ft | 439 kts | 346° |
| 2026-05-08 00:32 | 19.62690 | -65.49672 | 36074 ft | 439 kts | 346° |
| 2026-05-08 00:32 | 19.68566 | -65.51436 | 36073 ft | 439 kts | 346° |
| 2026-05-08 00:33 | 19.74443 | -65.53200 | 36073 ft | 439 kts | 346° |
| 2026-05-08 00:33 | 19.80315 | -65.54965 | 36072 ft | 438 kts | 346° |
| 2026-05-08 00:34 | 19.86188 | -65.56731 | 36072 ft | 438 kts | 346° |
| 2026-05-08 00:34 | 19.92063 | -65.58499 | 36073 ft | 438 kts | 347° |
| 2026-05-08 00:35 | 19.97932 | -65.60267 | 36076 ft | 438 kts | 346° |
| 2026-05-08 00:35 | 20.03748 | -65.62020 | 36075 ft | 438 kts | 347° |
| 2026-05-08 00:36 | 20.09605 | -65.63787 | 36070 ft | 437 kts | 347° |
| 2026-05-08 00:36 | 20.15460 | -65.65555 | 36072 ft | 437 kts | 347° |
| 2026-05-08 00:37 | 20.21318 | -65.67325 | 36072 ft | 437 kts | 347° |
| 2026-05-08 00:38 | 20.29117 | -65.69684 | 36071 ft | 437 kts | 347° |
| 2026-05-08 00:38 | 20.34973 | -65.71457 | 36055 ft | 437 kts | 347° |
| 2026-05-08 00:39 | 20.40827 | -65.73230 | 36061 ft | 437 kts | 346° |
| 2026-05-08 00:39 | 20.47641 | -65.75296 | 36054 ft | 438 kts | 347° |
| 2026-05-08 00:40 | 20.52544 | -65.76784 | 36050 ft | 437 kts | 346° |
| 2026-05-08 00:40 | 20.58402 | -65.78563 | 36055 ft | 438 kts | 346° |
| 2026-05-08 00:41 | 20.64221 | -65.80331 | 36052 ft | 438 kts | 346° |
| 2026-05-08 00:41 | 20.70081 | -65.82114 | 36051 ft | 437 kts | 346° |
| 2026-05-08 00:42 | 20.75933 | -65.83895 | 36055 ft | 437 kts | 346° |
| 2026-05-08 00:42 | 20.81792 | -65.85680 | 36052 ft | 437 kts | 346° |
| 2026-05-08 00:43 | 20.87647 | -65.87465 | 36052 ft | 437 kts | 346° |
| 2026-05-08 00:43 | 20.93506 | -65.89253 | 36058 ft | 438 kts | 346° |
| 2026-05-08 00:44 | 20.99368 | -65.91042 | 36053 ft | 437 kts | 346° |
| 2026-05-08 00:44 | 21.05177 | -65.92817 | 36058 ft | 437 kts | 346° |
| 2026-05-08 00:45 | 21.11029 | -65.94607 | 36053 ft | 437 kts | 346° |
| 2026-05-08 00:45 | 21.16896 | -65.96403 | 36051 ft | 437 kts | 346° |
| 2026-05-08 00:46 | 21.22754 | -65.98198 | 36051 ft | 437 kts | 346° |
| 2026-05-08 00:46 | 21.28573 | -65.99981 | 36058 ft | 437 kts | 346° |
| 2026-05-08 00:47 | 21.34433 | -66.01780 | 36051 ft | 438 kts | 346° |
| 2026-05-08 00:47 | 21.40299 | -66.03581 | 36064 ft | 438 kts | 346° |
| 2026-05-08 00:48 | 21.46172 | -66.05327 | 36062 ft | 436 kts | 351° |
| 2026-05-08 00:48 | 21.52147 | -66.06465 | 36069 ft | 437 kts | 351° |
| 2026-05-08 00:49 | 21.58116 | -66.07676 | 36061 ft | 437 kts | 351° |
| 2026-05-08 00:49 | 21.64084 | -66.08899 | 36065 ft | 437 kts | 351° |
| 2026-05-08 00:50 | 21.70024 | -66.10120 | 36068 ft | 436 kts | 351° |
| 2026-05-08 00:50 | 21.75990 | -66.11348 | 36060 ft | 436 kts | 351° |
| 2026-05-08 00:51 | 21.81953 | -66.12578 | 36054 ft | 436 kts | 351° |
| 2026-05-08 00:51 | 21.87914 | -66.13807 | 36054 ft | 436 kts | 351° |
| 2026-05-08 00:52 | 21.93874 | -66.15038 | 36062 ft | 436 kts | 351° |
| 2026-05-08 00:52 | 21.99831 | -66.16269 | 36063 ft | 436 kts | 351° |
| 2026-05-08 00:53 | 22.05793 | -66.17492 | 36061 ft | 436 kts | 351° |
| 2026-05-08 00:53 | 22.11724 | -66.18703 | 36062 ft | 436 kts | 351° |
| 2026-05-08 00:54 | 22.17693 | -66.19922 | 36068 ft | 436 kts | 351° |
| 2026-05-08 00:54 | 22.23656 | -66.21142 | 36063 ft | 436 kts | 351° |
| 2026-05-08 00:55 | 22.29633 | -66.22366 | 36066 ft | 437 kts | 351° |
| 2026-05-08 00:55 | 22.35600 | -66.23588 | 36056 ft | 436 kts | 351° |
| 2026-05-08 00:56 | 22.41547 | -66.24808 | 36064 ft | 437 kts | 351° |
| 2026-05-08 00:56 | 22.47530 | -66.26036 | 36067 ft | 437 kts | 351° |
| 2026-05-08 00:57 | 22.53519 | -66.27266 | 36059 ft | 438 kts | 351° |
| 2026-05-08 00:57 | 22.59504 | -66.28497 | 36062 ft | 438 kts | 351° |
| 2026-05-08 00:58 | 22.65496 | -66.29730 | 36060 ft | 438 kts | 351° |
| 2026-05-08 00:58 | 22.71456 | -66.30957 | 36061 ft | 439 kts | 350° |
| 2026-05-08 00:59 | 22.77453 | -66.32194 | 36071 ft | 440 kts | 350° |
| 2026-05-08 00:59 | 22.83478 | -66.33437 | 36061 ft | 440 kts | 350° |
| 2026-05-08 01:00 | 22.89500 | -66.34680 | 36064 ft | 440 kts | 350° |
| 2026-05-08 01:00 | 22.95521 | -66.35933 | 36067 ft | 440 kts | 350° |
| 2026-05-08 01:01 | 23.01549 | -66.37192 | 36064 ft | 441 kts | 350° |
| 2026-05-08 01:01 | 23.07538 | -66.38443 | 36067 ft | 441 kts | 350° |
| 2026-05-08 01:02 | 23.13565 | -66.39703 | 36067 ft | 441 kts | 350° |
| 2026-05-08 01:02 | 23.19598 | -66.40966 | 36065 ft | 441 kts | 350° |
| 2026-05-08 01:03 | 23.25628 | -66.42230 | 36066 ft | 442 kts | 350° |
| 2026-05-08 01:03 | 23.31672 | -66.43497 | 36063 ft | 442 kts | 350° |
| 2026-05-08 01:04 | 23.37704 | -66.44764 | 36063 ft | 442 kts | 350° |
| 2026-05-08 01:04 | 23.43700 | -66.46023 | 36063 ft | 441 kts | 350° |
| 2026-05-08 01:05 | 23.49738 | -66.47293 | 36074 ft | 442 kts | 350° |
| 2026-05-08 01:05 | 23.55780 | -66.48565 | 36072 ft | 442 kts | 350° |
| 2026-05-08 01:06 | 23.61818 | -66.49837 | 36073 ft | 442 kts | 350° |
| 2026-05-08 01:06 | 23.67856 | -66.51110 | 36073 ft | 442 kts | 350° |
| 2026-05-08 01:07 | 23.73888 | -66.52383 | 36073 ft | 442 kts | 350° |
| 2026-05-08 01:07 | 23.79926 | -66.53659 | 36073 ft | 442 kts | 350° |
| 2026-05-08 01:08 | 23.85918 | -66.54926 | 36072 ft | 442 kts | 350° |
| 2026-05-08 01:08 | 23.91953 | -66.56204 | 36073 ft | 442 kts | 350° |
| 2026-05-08 01:09 | 23.97986 | -66.57482 | 36072 ft | 442 kts | 350° |
| 2026-05-08 01:09 | 24.04025 | -66.58763 | 36072 ft | 442 kts | 349° |
| 2026-05-08 01:10 | 24.10070 | -66.60046 | 36075 ft | 442 kts | 349° |
| 2026-05-08 01:10 | 24.16124 | -66.61332 | 36073 ft | 442 kts | 349° |
| 2026-05-08 01:11 | 24.22166 | -66.62617 | 36073 ft | 442 kts | 349° |
| 2026-05-08 01:11 | 24.28218 | -66.63906 | 36074 ft | 443 kts | 349° |
| 2026-05-08 01:12 | 24.34228 | -66.65186 | 36073 ft | 443 kts | 349° |
| 2026-05-08 01:12 | 24.40280 | -66.66478 | 36068 ft | 442 kts | 349° |
| 2026-05-08 01:13 | 24.46324 | -66.67768 | 36070 ft | 443 kts | 349° |
| 2026-05-08 01:13 | 24.52374 | -66.69061 | 36072 ft | 443 kts | 349° |
| 2026-05-08 01:14 | 24.58430 | -66.70356 | 36073 ft | 443 kts | 349° |
| 2026-05-08 01:14 | 24.64483 | -66.71653 | 36072 ft | 443 kts | 349° |
| 2026-05-08 01:15 | 24.70493 | -66.72941 | 36074 ft | 443 kts | 349° |
| 2026-05-08 01:15 | 24.76550 | -66.74240 | 36058 ft | 443 kts | 349° |
| 2026-05-08 01:16 | 24.82607 | -66.75541 | 36060 ft | 443 kts | 349° |
| 2026-05-08 01:16 | 24.88658 | -66.76842 | 36053 ft | 443 kts | 349° |
| 2026-05-08 01:17 | 24.94718 | -66.78146 | 36060 ft | 444 kts | 349° |
| 2026-05-08 01:17 | 25.00785 | -66.79453 | 36055 ft | 444 kts | 349° |
| 2026-05-08 01:18 | 25.06847 | -66.80761 | 36051 ft | 444 kts | 349° |
| 2026-05-08 01:18 | 25.12908 | -66.82069 | 36059 ft | 444 kts | 349° |
| 2026-05-08 01:19 | 25.18978 | -66.83381 | 36060 ft | 444 kts | 349° |
| 2026-05-08 01:19 | 25.25008 | -66.84685 | 36052 ft | 444 kts | 349° |
| 2026-05-08 01:20 | 25.31078 | -66.85999 | 36051 ft | 444 kts | 349° |
| 2026-05-08 01:20 | 25.37140 | -66.87313 | 36051 ft | 444 kts | 349° |
| 2026-05-08 01:21 | 25.43211 | -66.88630 | 36059 ft | 444 kts | 349° |
| 2026-05-08 01:21 | 25.49274 | -66.89947 | 36060 ft | 444 kts | 349° |
| 2026-05-08 01:22 | 25.55331 | -66.91264 | 36054 ft | 444 kts | 349° |
| 2026-05-08 01:22 | 25.61400 | -66.92585 | 36057 ft | 444 kts | 349° |
| 2026-05-08 01:23 | 25.67466 | -66.93907 | 36061 ft | 444 kts | 349° |
| 2026-05-08 01:23 | 25.73533 | -66.95230 | 36056 ft | 444 kts | 349° |
| 2026-05-08 01:24 | 25.79561 | -66.96546 | 36053 ft | 444 kts | 348° |
| 2026-05-08 01:24 | 25.85624 | -66.97871 | 36053 ft | 444 kts | 348° |
| 2026-05-08 01:25 | 25.91689 | -66.99198 | 36050 ft | 444 kts | 348° |
| 2026-05-08 01:25 | 25.97764 | -67.00528 | 36057 ft | 444 kts | 348° |
| 2026-05-08 01:26 | 26.02813 | -67.01634 | 36053 ft | 445 kts | 348° |
| 2026-05-08 01:26 | 26.09902 | -67.03189 | 36056 ft | 444 kts | 348° |
| 2026-05-08 01:27 | 26.15969 | -67.04521 | 36052 ft | 444 kts | 348° |
| 2026-05-08 01:27 | 26.21999 | -67.05829 | 36055 ft | 445 kts | 349° |
| 2026-05-08 01:28 | 26.28082 | -67.07114 | 36057 ft | 445 kts | 349° |
| 2026-05-08 01:28 | 26.34174 | -67.08403 | 36052 ft | 445 kts | 349° |
| 2026-05-08 01:29 | 26.40260 | -67.09692 | 36053 ft | 445 kts | 349° |
| 2026-05-08 01:29 | 26.45320 | -67.10765 | 36056 ft | 445 kts | 349° |
| 2026-05-08 01:30 | 26.51406 | -67.12056 | 36058 ft | 445 kts | 348° |
| 2026-05-08 01:30 | 26.57493 | -67.13349 | 36051 ft | 445 kts | 348° |
| 2026-05-08 01:31 | 26.63575 | -67.14643 | 36056 ft | 445 kts | 348° |
| 2026-05-08 01:31 | 26.69671 | -67.15941 | 36066 ft | 445 kts | 348° |
| 2026-05-08 01:32 | 26.75751 | -67.17237 | 36060 ft | 445 kts | 349° |
| 2026-05-08 01:32 | 26.81799 | -67.18528 | 36064 ft | 445 kts | 348° |
| 2026-05-08 01:33 | 26.87886 | -67.19827 | 36063 ft | 445 kts | 348° |
| 2026-05-08 01:33 | 26.93976 | -67.21130 | 36062 ft | 445 kts | 348° |
| 2026-05-08 01:34 | 27.00062 | -67.22433 | 36065 ft | 445 kts | 348° |
| 2026-05-08 01:34 | 27.06150 | -67.23738 | 36058 ft | 445 kts | 348° |
| 2026-05-08 01:35 | 27.12196 | -67.25072 | 36055 ft | 445 kts | 348° |
| 2026-05-08 01:35 | 27.18280 | -67.26422 | 36049 ft | 445 kts | 348° |
| 2026-05-08 01:36 | 27.24366 | -67.27773 | 36056 ft | 446 kts | 348° |
| 2026-05-08 01:36 | 27.30450 | -67.29125 | 36052 ft | 446 kts | 348° |
| 2026-05-08 01:37 | 27.36544 | -67.30481 | 36056 ft | 446 kts | 348° |
| 2026-05-08 01:37 | 27.42633 | -67.31837 | 36052 ft | 446 kts | 348° |
| 2026-05-08 01:38 | 27.48719 | -67.33194 | 36057 ft | 445 kts | 348° |
| 2026-05-08 01:38 | 27.54801 | -67.34552 | 36058 ft | 446 kts | 348° |
| 2026-05-08 01:39 | 27.60851 | -67.35903 | 36058 ft | 446 kts | 348° |
| 2026-05-08 01:39 | 27.66947 | -67.37268 | 36057 ft | 446 kts | 348° |
| 2026-05-08 01:40 | 27.73037 | -67.38631 | 36051 ft | 446 kts | 348° |
| 2026-05-08 01:40 | 27.79131 | -67.39998 | 36059 ft | 446 kts | 348° |
| 2026-05-08 01:41 | 27.85230 | -67.41367 | 36050 ft | 446 kts | 348° |
| 2026-05-08 01:41 | 27.91293 | -67.42730 | 36054 ft | 446 kts | 348° |
| 2026-05-08 01:42 | 27.97381 | -67.44100 | 36054 ft | 446 kts | 348° |
| 2026-05-08 01:42 | 28.03483 | -67.45474 | 36052 ft | 446 kts | 348° |
| 2026-05-08 01:43 | 28.09580 | -67.46849 | 36057 ft | 447 kts | 348° |
| 2026-05-08 01:43 | 28.15676 | -67.48226 | 36051 ft | 447 kts | 348° |
| 2026-05-08 01:44 | 28.21780 | -67.49605 | 36059 ft | 447 kts | 348° |
| 2026-05-08 01:44 | 28.27875 | -67.50984 | 36055 ft | 447 kts | 347° |
| 2026-05-08 01:45 | 28.33964 | -67.52363 | 36056 ft | 446 kts | 347° |
| 2026-05-08 01:45 | 28.40017 | -67.53738 | 36059 ft | 446 kts | 347° |
| 2026-05-08 01:46 | 28.46113 | -67.55123 | 36056 ft | 447 kts | 347° |
| 2026-05-08 01:46 | 28.52211 | -67.56510 | 36058 ft | 447 kts | 347° |
| 2026-05-08 01:47 | 28.58311 | -67.57900 | 36054 ft | 446 kts | 347° |
| 2026-05-08 01:47 | 28.64405 | -67.59290 | 36050 ft | 447 kts | 347° |
| 2026-05-08 01:48 | 28.73557 | -67.61380 | 36056 ft | 447 kts | 347° |
| 2026-05-08 01:48 | 28.79662 | -67.62776 | 36058 ft | 447 kts | 347° |
| 2026-05-08 01:49 | 28.85755 | -67.64171 | 36049 ft | 446 kts | 347° |
| 2026-05-08 01:49 | 28.91806 | -67.65558 | 36059 ft | 447 kts | 347° |
| 2026-05-08 01:50 | 28.97905 | -67.66958 | 36060 ft | 447 kts | 347° |
| 2026-05-08 01:50 | 29.03998 | -67.68358 | 36064 ft | 447 kts | 347° |
| 2026-05-08 01:51 | 29.10096 | -67.69761 | 36062 ft | 447 kts | 347° |
| 2026-05-08 01:51 | 29.16195 | -67.71166 | 36059 ft | 447 kts | 347° |
| 2026-05-08 01:52 | 29.22297 | -67.72574 | 36065 ft | 447 kts | 347° |
| 2026-05-08 01:52 | 29.28392 | -67.73981 | 36062 ft | 447 kts | 347° |
| 2026-05-08 01:53 | 29.34490 | -67.75391 | 36059 ft | 447 kts | 347° |
| 2026-05-08 01:53 | 29.40599 | -67.76805 | 36064 ft | 447 kts | 347° |
| 2026-05-08 01:54 | 29.46662 | -67.78210 | 36059 ft | 447 kts | 347° |
| 2026-05-08 01:54 | 29.52757 | -67.79624 | 36068 ft | 447 kts | 347° |
| 2026-05-08 01:55 | 29.58858 | -67.81042 | 36065 ft | 447 kts | 347° |
| 2026-05-08 01:55 | 29.64967 | -67.82463 | 36062 ft | 447 kts | 347° |
| 2026-05-08 01:56 | 29.71076 | -67.83886 | 36051 ft | 447 kts | 347° |
| 2026-05-08 01:56 | 29.77176 | -67.85309 | 36047 ft | 447 kts | 347° |
| 2026-05-08 01:57 | 29.83238 | -67.86724 | 36046 ft | 447 kts | 347° |
| 2026-05-08 01:57 | 29.89346 | -67.88152 | 36046 ft | 448 kts | 347° |
| 2026-05-08 01:58 | 29.95457 | -67.89582 | 36042 ft | 447 kts | 347° |
| 2026-05-08 01:58 | 30.01562 | -67.91013 | 36051 ft | 448 kts | 347° |
| 2026-05-08 01:59 | 30.07671 | -67.92447 | 36052 ft | 448 kts | 347° |
| 2026-05-08 01:59 | 30.13743 | -67.93873 | 36046 ft | 448 kts | 347° |
| 2026-05-08 02:00 | 30.19847 | -67.95309 | 36050 ft | 447 kts | 347° |
| 2026-05-08 02:00 | 30.25951 | -67.96747 | 36044 ft | 447 kts | 347° |
| 2026-05-08 02:01 | 30.32052 | -67.98186 | 36041 ft | 448 kts | 347° |
| 2026-05-08 02:01 | 30.38162 | -67.99629 | 36049 ft | 448 kts | 347° |
| 2026-05-08 02:02 | 30.44265 | -68.01072 | 36052 ft | 448 kts | 347° |
| 2026-05-08 02:02 | 30.50340 | -68.02510 | 36040 ft | 448 kts | 347° |
| 2026-05-08 02:03 | 30.56449 | -68.03958 | 36045 ft | 448 kts | 347° |
| 2026-05-08 02:03 | 30.62557 | -68.05408 | 36049 ft | 448 kts | 346° |
| 2026-05-08 02:04 | 30.68671 | -68.06861 | 36048 ft | 448 kts | 346° |
| 2026-05-08 02:04 | 30.74780 | -68.08315 | 36048 ft | 448 kts | 346° |
| 2026-05-08 02:05 | 30.80901 | -68.09774 | 36049 ft | 448 kts | 346° |
| 2026-05-08 02:05 | 30.87028 | -68.11235 | 36048 ft | 449 kts | 346° |
| 2026-05-08 02:06 | 30.93142 | -68.12696 | 36049 ft | 448 kts | 346° |
| 2026-05-08 02:06 | 30.99257 | -68.14159 | 36051 ft | 449 kts | 346° |
| 2026-05-08 02:07 | 31.05331 | -68.15614 | 36047 ft | 449 kts | 346° |
| 2026-05-08 02:07 | 31.11449 | -68.17081 | 36036 ft | 448 kts | 346° |
| 2026-05-08 02:08 | 31.17572 | -68.18551 | 36052 ft | 449 kts | 346° |
| 2026-05-08 02:08 | 31.23691 | -68.20022 | 36051 ft | 448 kts | 346° |
| 2026-05-08 02:09 | 31.29807 | -68.21494 | 36048 ft | 449 kts | 346° |
| 2026-05-08 02:09 | 31.35925 | -68.22968 | 36051 ft | 449 kts | 346° |
| 2026-05-08 02:10 | 31.42038 | -68.24446 | 36040 ft | 448 kts | 346° |
| 2026-05-08 02:10 | 31.48146 | -68.25924 | 36042 ft | 448 kts | 346° |
| 2026-05-08 02:11 | 31.54225 | -68.27396 | 36041 ft | 448 kts | 346° |
| 2026-05-08 02:11 | 31.60338 | -68.28878 | 36045 ft | 448 kts | 346° |
| 2026-05-08 02:12 | 31.66453 | -68.30362 | 36040 ft | 448 kts | 346° |
| 2026-05-08 02:12 | 31.72558 | -68.31846 | 36047 ft | 448 kts | 346° |
| 2026-05-08 02:13 | 31.78673 | -68.33335 | 36043 ft | 449 kts | 346° |
| 2026-05-08 02:13 | 31.84788 | -68.34825 | 36046 ft | 448 kts | 346° |
| 2026-05-08 02:14 | 31.90901 | -68.36317 | 36041 ft | 448 kts | 346° |
| 2026-05-08 02:14 | 31.97008 | -68.37810 | 36046 ft | 448 kts | 346° |
| 2026-05-08 02:15 | 32.03119 | -68.39306 | 36042 ft | 448 kts | 346° |
| 2026-05-08 02:15 | 32.09200 | -68.40796 | 36036 ft | 448 kts | 345° |
| 2026-05-08 02:16 | 32.15315 | -68.42297 | 36052 ft | 449 kts | 345° |
| 2026-05-08 02:16 | 32.21439 | -68.43802 | 36040 ft | 449 kts | 345° |
| 2026-05-08 02:17 | 32.26523 | -68.45053 | 36049 ft | 449 kts | 345° |
| 2026-05-08 02:17 | 32.32635 | -68.46558 | 36044 ft | 449 kts | 345° |
| 2026-05-08 02:18 | 32.38761 | -68.48070 | 36046 ft | 449 kts | 345° |
| 2026-05-08 02:18 | 32.44878 | -68.49581 | 36044 ft | 450 kts | 345° |
| 2026-05-08 02:19 | 32.51007 | -68.51097 | 36027 ft | 450 kts | 345° |
| 2026-05-08 02:19 | 32.57135 | -68.52615 | 36026 ft | 450 kts | 345° |
| 2026-05-08 02:20 | 32.63269 | -68.54137 | 36019 ft | 450 kts | 345° |
| 2026-05-08 02:20 | 32.69396 | -68.55659 | 36018 ft | 450 kts | 345° |
| 2026-05-08 02:21 | 32.75496 | -68.57176 | 36016 ft | 451 kts | 345° |
| 2026-05-08 02:21 | 32.81642 | -68.58708 | 36017 ft | 451 kts | 345° |
| 2026-05-08 02:22 | 32.87782 | -68.60239 | 36018 ft | 451 kts | 345° |
| 2026-05-08 02:22 | 32.93931 | -68.61776 | 36017 ft | 451 kts | 345° |
| 2026-05-08 02:23 | 33.00078 | -68.63314 | 36018 ft | 451 kts | 345° |
| 2026-05-08 02:23 | 33.06227 | -68.64854 | 36017 ft | 452 kts | 345° |
| 2026-05-08 02:24 | 33.12389 | -68.66400 | 36017 ft | 452 kts | 345° |
| 2026-05-08 02:24 | 33.18546 | -68.67947 | 36018 ft | 452 kts | 345° |
| 2026-05-08 02:25 | 33.24655 | -68.69485 | 36010 ft | 452 kts | 345° |
| 2026-05-08 02:25 | 33.30817 | -68.71037 | 36007 ft | 452 kts | 345° |
| 2026-05-08 02:26 | 33.36978 | -68.72592 | 36004 ft | 453 kts | 345° |
| 2026-05-08 02:26 | 33.43147 | -68.74151 | 36006 ft | 453 kts | 345° |
| 2026-05-08 02:27 | 33.49314 | -68.75712 | 36001 ft | 453 kts | 345° |
| 2026-05-08 02:27 | 33.55488 | -68.77277 | 36004 ft | 453 kts | 345° |
| 2026-05-08 02:28 | 33.61654 | -68.78842 | 35997 ft | 453 kts | 345° |
| 2026-05-08 02:28 | 33.67823 | -68.80410 | 36002 ft | 453 kts | 345° |
| 2026-05-08 02:29 | 33.74002 | -68.81983 | 35992 ft | 453 kts | 345° |
| 2026-05-08 02:29 | 33.80137 | -68.83547 | 36000 ft | 453 kts | 345° |
| 2026-05-08 02:30 | 33.86307 | -68.85122 | 35993 ft | 453 kts | 345° |
| 2026-05-08 02:30 | 33.92479 | -68.86699 | 35985 ft | 453 kts | 345° |
| 2026-05-08 02:31 | 33.98657 | -68.88281 | 35992 ft | 453 kts | 345° |
| 2026-05-08 02:31 | 34.04800 | -68.89855 | 35984 ft | 454 kts | 345° |
| 2026-05-08 02:32 | 34.11025 | -68.91455 | 35993 ft | 455 kts | 344° |
| 2026-05-08 02:32 | 34.17174 | -68.93038 | 35980 ft | 454 kts | 344° |
| 2026-05-08 02:33 | 34.23360 | -68.94632 | 35982 ft | 454 kts | 344° |
| 2026-05-08 02:33 | 34.29558 | -68.96231 | 35984 ft | 455 kts | 344° |
| 2026-05-08 02:34 | 34.35746 | -68.97830 | 35970 ft | 454 kts | 344° |
| 2026-05-08 02:34 | 34.41895 | -68.99422 | 35972 ft | 455 kts | 344° |
| 2026-05-08 02:35 | 34.48091 | -69.01028 | 35971 ft | 455 kts | 344° |
| 2026-05-08 02:35 | 34.54281 | -69.02635 | 35971 ft | 455 kts | 344° |
| 2026-05-08 02:36 | 34.60479 | -69.04246 | 35972 ft | 455 kts | 344° |
| 2026-05-08 02:36 | 34.66673 | -69.05859 | 35971 ft | 455 kts | 344° |
| 2026-05-08 02:37 | 34.72868 | -69.07475 | 35971 ft | 455 kts | 344° |
| 2026-05-08 02:37 | 34.79062 | -69.09092 | 35972 ft | 456 kts | 344° |
| 2026-05-08 02:38 | 34.85263 | -69.10714 | 35964 ft | 455 kts | 344° |
| 2026-05-08 02:38 | 34.91420 | -69.12328 | 35961 ft | 455 kts | 344° |
| 2026-05-08 02:39 | 34.97628 | -69.13957 | 35960 ft | 456 kts | 343° |
| 2026-05-08 02:39 | 35.03825 | -69.15585 | 35954 ft | 455 kts | 343° |
| 2026-05-08 02:40 | 35.10029 | -69.17218 | 35952 ft | 456 kts | 343° |
| 2026-05-08 02:40 | 35.16233 | -69.18853 | 35954 ft | 455 kts | 343° |
| 2026-05-08 02:41 | 35.22429 | -69.20489 | 35952 ft | 456 kts | 343° |
| 2026-05-08 02:41 | 35.28632 | -69.22130 | 35953 ft | 456 kts | 343° |
| 2026-05-08 02:42 | 35.34797 | -69.23763 | 35950 ft | 456 kts | 343° |
| 2026-05-08 02:42 | 35.41047 | -69.25420 | 35950 ft | 456 kts | 343° |
| 2026-05-08 02:43 | 35.47215 | -69.27059 | 35935 ft | 456 kts | 343° |
| 2026-05-08 02:43 | 35.53426 | -69.28712 | 35935 ft | 457 kts | 343° |
| 2026-05-08 02:44 | 35.59638 | -69.30368 | 35935 ft | 457 kts | 343° |
| 2026-05-08 02:44 | 35.65848 | -69.32025 | 35934 ft | 457 kts | 343° |
| 2026-05-08 02:45 | 35.72070 | -69.33689 | 35925 ft | 458 kts | 343° |
| 2026-05-08 02:45 | 35.78287 | -69.35354 | 35925 ft | 457 kts | 343° |
| 2026-05-08 02:46 | 35.84516 | -69.37025 | 35928 ft | 458 kts | 343° |
| 2026-05-08 02:46 | 35.90706 | -69.38688 | 35924 ft | 458 kts | 343° |
| 2026-05-08 02:47 | 35.96938 | -69.40365 | 35927 ft | 458 kts | 343° |
| 2026-05-08 02:47 | 36.03164 | -69.42042 | 35919 ft | 458 kts | 342° |
| 2026-05-08 02:48 | 36.09399 | -69.43724 | 35913 ft | 459 kts | 342° |
| 2026-05-08 02:48 | 36.15516 | -69.45769 | 35885 ft | 448 kts | 328° |
| 2026-05-08 02:49 | 36.20564 | -69.50042 | 35906 ft | 443 kts | 319° |
| 2026-05-08 02:49 | 36.25464 | -69.54638 | 35892 ft | 442 kts | 318° |
| 2026-05-08 02:50 | 36.30317 | -69.59289 | 35888 ft | 443 kts | 318° |
| 2026-05-08 02:50 | 36.35167 | -69.63969 | 35948 ft | 443 kts | 317° |
| 2026-05-08 02:51 | 36.40014 | -69.68653 | 35915 ft | 441 kts | 317° |
| 2026-05-08 02:51 | 36.44856 | -69.73340 | 35915 ft | 441 kts | 317° |
| 2026-05-08 02:52 | 36.49697 | -69.78034 | 35916 ft | 441 kts | 317° |
| 2026-05-08 02:52 | 36.54539 | -69.82736 | 35921 ft | 441 kts | 317° |
| 2026-05-08 02:53 | 36.59378 | -69.87444 | 35914 ft | 441 kts | 317° |
| 2026-05-08 02:53 | 36.64215 | -69.92154 | 35898 ft | 441 kts | 317° |
| 2026-05-08 02:54 | 36.69024 | -69.96847 | 35863 ft | 443 kts | 317° |
| 2026-05-08 02:54 | 36.73853 | -70.01570 | 35927 ft | 442 kts | 317° |
| 2026-05-08 02:55 | 36.81099 | -70.08667 | 35898 ft | 440 kts | 317° |
| 2026-05-08 02:56 | 36.85926 | -70.13410 | 35926 ft | 442 kts | 316° |
| 2026-05-08 02:56 | 36.90766 | -70.18158 | 35852 ft | 440 kts | 316° |
| 2026-05-08 02:56 | 36.93171 | -70.20530 | 35990 ft | 440 kts | 316° |
| 2026-05-08 02:57 | 36.95578 | -70.22902 | 35901 ft | 440 kts | 316° |
| 2026-05-08 02:57 | 37.00377 | -70.27636 | 35912 ft | 440 kts | 316° |
| 2026-05-08 02:58 | 37.05149 | -70.32353 | 35906 ft | 440 kts | 316° |
| 2026-05-08 02:58 | 37.09950 | -70.37104 | 35897 ft | 440 kts | 316° |
| 2026-05-08 02:59 | 37.14746 | -70.41858 | 35893 ft | 439 kts | 316° |
| 2026-05-08 02:59 | 37.19541 | -70.46620 | 35897 ft | 440 kts | 316° |
| 2026-05-08 03:00 | 37.24332 | -70.51382 | 35885 ft | 440 kts | 316° |
| 2026-05-08 03:00 | 37.29123 | -70.56157 | 35925 ft | 440 kts | 316° |
| 2026-05-08 03:01 | 37.33908 | -70.60934 | 35883 ft | 438 kts | 315° |
| 2026-05-08 03:01 | 37.38693 | -70.65718 | 35884 ft | 441 kts | 315° |
| 2026-05-08 03:02 | 37.43475 | -70.70504 | 35898 ft | 438 kts | 316° |